Time,TemperatureF,DewpointF,PressureIn,WindDirection,WindDirectionDegrees,WindSpeedMPH,WindSpeedGustMPH,Humidity,HourlyPrecipIn,Conditions,Clouds,dailyrainin,SoftwareType,DateUTC
2013-01-19 00:09:00,27.1,15.5,30.37,WSW,247,4.2,-999.0,61,-99.99,,,0.00,Acu-Link.com,2013-01-19 05:09:00,
2013-01-19 00:24:00,28.0,15.2,30.35,West,270,4.7,-999.0,58,-99.99,,,0.00,Acu-Link.com,2013-01-19 05:24:00,
2013-01-19 00:40:00,29.5,15.8,30.34,SSW,202,2.7,-999.0,56,-99.99,,,0.00,Acu-Link.com,2013-01-19 05:40:00,
2013-01-19 00:55:00,29.8,16.0,30.34,SW,225,2.7,-999.0,56,-99.99,,,0.00,Acu-Link.com,2013-01-19 05:55:00,
2013-01-19 01:10:00,30.4,17.0,30.34,South,180,2.7,-999.0,57,-99.99,,,0.00,Acu-Link.com,2013-01-19 06:10:00,
2013-01-19 01:26:00,30.4,17.8,30.35,WSW,247,3.2,-999.0,59,-99.99,,,0.00,Acu-Link.com,2013-01-19 06:26:00,
2013-01-19 01:41:00,30.2,18.8,30.34,ESE,112,2.2,-999.0,62,-99.99,,,0.00,Acu-Link.com,2013-01-19 06:41:00,
2013-01-19 01:57:00,30.7,20.0,30.34,NE,45,3.2,-999.0,64,-99.99,,,0.00,Acu-Link.com,2013-01-19 06:57:00,
2013-01-19 02:12:00,31.5,20.7,30.34,West,270,3.7,-999.0,64,-99.99,,,0.00,Acu-Link.com,2013-01-19 07:12:00,
2013-01-19 02:27:00,31.8,21.4,30.33,WSW,247,8.9,-999.0,65,-99.99,,,0.00,Acu-Link.com,2013-01-19 07:27:00,
2013-01-19 02:43:00,31.8,21.8,30.32,SSW,202,3.7,-999.0,66,-99.99,,,0.00,Acu-Link.com,2013-01-19 07:43:00,
2013-01-19 02:58:00,32.4,22.7,30.32,SSE,157,3.2,-999.0,67,-99.99,,,0.00,Acu-Link.com,2013-01-19 07:58:00,
2013-01-19 03:14:00,32.4,23.4,30.31,SSW,202,3.2,-999.0,69,-99.99,,,0.00,Acu-Link.com,2013-01-19 08:14:00,
2013-01-19 03:29:00,32.9,23.2,30.31,WSW,247,6.3,-999.0,67,-99.99,,,0.00,Acu-Link.com,2013-01-19 08:29:00,
2013-01-19 03:44:00,33.4,23.3,30.30,South,180,4.2,-999.0,66,-99.99,,,0.00,Acu-Link.com,2013-01-19 08:44:00,
2013-01-19 04:00:00,33.6,24.2,30.29,West,270,12.5,-999.0,68,-99.99,,,0.00,Acu-Link.com,2013-01-19 09:00:00,
2013-01-19 04:35:00,33.8,23.3,30.29,ESE,112,5.8,-999.0,65,-99.99,,,0.00,Acu-Link.com,2013-01-19 09:35:00,
2013-01-19 04:51:00,34.3,23.4,30.27,NNE,22,4.2,-999.0,64,-99.99,,,0.00,Acu-Link.com,2013-01-19 09:51:00,
2013-01-19 05:06:00,34.9,24.3,30.26,South,180,4.2,-999.0,65,-99.99,,,0.00,Acu-Link.com,2013-01-19 10:06:00,
2013-01-19 05:21:00,35.4,24.5,30.26,SSE,157,3.2,-999.0,64,-99.99,,,0.00,Acu-Link.com,2013-01-19 10:21:00,
2013-01-19 05:36:00,35.4,25.6,30.25,NE,45,3.7,-999.0,67,-99.99,,,0.00,Acu-Link.com,2013-01-19 10:36:00,
2013-01-19 05:51:00,36.0,26.5,30.25,NNE,22,4.7,-999.0,68,-99.99,,,0.00,Acu-Link.com,2013-01-19 10:51:00,
2013-01-19 06:06:00,36.1,26.6,30.25,West,270,6.8,-999.0,68,-99.99,,,0.00,Acu-Link.com,2013-01-19 11:06:00,
2013-01-19 07:57:00,39.6,31.3,30.22,West,270,5.8,-999.0,72,-99.99,,,0.00,Acu-Link.com,2013-01-19 12:57:00,
2013-01-19 08:12:00,40.3,31.3,30.22,ESE,112,5.3,-999.0,70,-99.99,,,0.00,Acu-Link.com,2013-01-19 13:12:00,
2013-01-19 08:27:00,41.2,31.5,30.22,SSE,157,4.7,-999.0,68,-99.99,,,0.00,Acu-Link.com,2013-01-19 13:27:00,
2013-01-19 08:43:00,41.9,31.8,30.22,ESE,112,2.2,-999.0,67,-99.99,,,0.00,Acu-Link.com,2013-01-19 13:43:00,
2013-01-19 08:58:00,42.4,31.9,30.21,SSW,202,6.8,-999.0,66,-99.99,,,0.00,Acu-Link.com,2013-01-19 13:58:00,
2013-01-19 09:13:00,42.8,32.2,30.20,West,270,5.3,-999.0,66,-99.99,,,0.00,Acu-Link.com,2013-01-19 14:13:00,
2013-01-19 09:29:00,43.3,32.3,30.21,WSW,247,2.7,-999.0,65,-99.99,,,0.00,Acu-Link.com,2013-01-19 14:29:00,
2013-01-19 09:44:00,44.4,32.6,30.20,WNW,292,6.3,-999.0,63,-99.99,,,0.00,Acu-Link.com,2013-01-19 14:44:00,
2013-01-19 10:00:00,44.8,32.6,30.19,SW,225,4.2,-999.0,62,-99.99,,,0.00,Acu-Link.com,2013-01-19 15:00:00,
2013-01-19 10:15:00,45.1,32.1,30.18,South,180,7.8,-999.0,60,-99.99,,,0.00,Acu-Link.com,2013-01-19 15:15:00,
2013-01-19 10:30:00,46.0,32.1,30.17,WNW,292,6.3,-999.0,58,-99.99,,,0.00,Acu-Link.com,2013-01-19 15:30:00,
2013-01-19 10:46:00,46.4,32.0,30.17,SW,225,5.8,-999.0,57,-99.99,,,0.00,Acu-Link.com,2013-01-19 15:46:00,
2013-01-19 11:01:00,46.8,31.5,30.15,South,180,3.2,-999.0,55,-99.99,,,0.00,Acu-Link.com,2013-01-19 16:01:00,
2013-01-19 11:16:00,47.3,31.0,30.14,SSW,202,1.7,-999.0,53,-99.99,,,0.00,Acu-Link.com,2013-01-19 16:16:00,
2013-01-19 11:32:00,47.5,31.7,30.13,South,180,13.5,-999.0,54,-99.99,,,0.00,Acu-Link.com,2013-01-19 16:32:00,
2013-01-19 11:47:00,47.3,31.5,30.12,East,90,7.8,-999.0,54,-99.99,,,0.00,Acu-Link.com,2013-01-19 16:47:00,
2013-01-19 12:02:00,47.1,31.3,30.11,NE,45,9.4,-999.0,54,-99.99,,,0.00,Acu-Link.com,2013-01-19 17:02:00,
2013-01-19 12:33:00,47.5,32.1,30.08,NNE,22,4.2,-999.0,55,-99.99,,,0.00,Acu-Link.com,2013-01-19 17:33:00,
2013-01-19 12:48:00,46.9,32.0,30.07,NNW,337,4.2,-999.0,56,-99.99,,,0.00,Acu-Link.com,2013-01-19 17:48:00,
2013-01-19 13:34:00,46.0,31.6,30.06,WSW,247,6.8,-999.0,57,-99.99,,,0.00,Acu-Link.com,2013-01-19 18:34:00,
2013-01-19 13:50:00,46.4,32.0,30.05,South,180,6.3,-999.0,57,-99.99,,,0.00,Acu-Link.com,2013-01-19 18:50:00,
2013-01-19 14:05:00,46.6,31.3,30.05,West,270,10.9,-999.0,55,-99.99,,,0.00,Acu-Link.com,2013-01-19 19:05:00,
2013-01-19 14:36:00,45.9,31.5,30.03,SSE,157,2.7,-999.0,57,-99.99,,,0.00,Acu-Link.com,2013-01-19 19:36:00,
2013-01-19 15:06:00,45.9,32.0,30.02,SSE,157,2.7,-999.0,58,-99.99,,,0.00,Acu-Link.com,2013-01-19 20:06:00,
2013-01-19 15:22:00,46.2,31.8,30.02,SE,135,5.3,-999.0,57,-99.99,,,0.00,Acu-Link.com,2013-01-19 20:22:00,
2013-01-19 16:08:00,45.5,32.4,30.01,SSW,202,3.7,-999.0,60,-99.99,,,0.00,Acu-Link.com,2013-01-19 21:08:00,
2013-01-19 16:23:00,44.8,33.4,30.01,ESE,112,8.9,-999.0,64,-99.99,,,0.00,Acu-Link.com,2013-01-19 21:23:00,
2013-01-19 16:53:00,44.1,33.9,30.00,WSW,247,7.3,-999.0,67,-99.99,,,0.00,Acu-Link.com,2013-01-19 21:53:00,
2013-01-19 17:09:00,43.9,34.0,30.00,South,180,2.2,-999.0,68,-99.99,,,0.00,Acu-Link.com,2013-01-19 22:09:00,
2013-01-19 17:24:00,43.5,34.7,29.99,SSE,157,4.7,-999.0,71,-99.99,,,0.00,Acu-Link.com,2013-01-19 22:24:00,
2013-01-19 17:39:00,43.0,35.3,30.00,South,180,2.7,-999.0,74,-99.99,,,0.00,Acu-Link.com,2013-01-19 22:39:00,
2013-01-19 17:54:00,42.8,35.8,30.00,NNE,22,1.7,-999.0,76,-99.99,,,0.00,Acu-Link.com,2013-01-19 22:54:00,
2013-01-19 18:10:00,42.4,35.7,30.01,SW,225,7.8,-999.0,77,-99.99,,,0.00,Acu-Link.com,2013-01-19 23:10:00,
2013-01-19 18:25:00,42.6,35.9,30.00,WSW,247,2.7,-999.0,77,-99.99,,,0.00,Acu-Link.com,2013-01-19 23:25:00,
2013-01-19 19:27:00,41.5,36.1,29.99,ENE,67,1.7,-999.0,81,-99.99,,,0.00,Acu-Link.com,2013-01-20 00:27:00,
2013-01-19 19:42:00,41.4,36.3,29.99,South,180,0.0,-999.0,82,-99.99,,,0.00,Acu-Link.com,2013-01-20 00:42:00,
2013-01-19 19:58:00,40.6,36.2,29.98,South,180,1.1,-999.0,84,-99.99,,,0.00,Acu-Link.com,2013-01-20 00:58:00,
2013-01-19 20:28:00,40.1,36.0,29.97,West,270,2.2,-999.0,85,-99.99,,,0.00,Acu-Link.com,2013-01-20 01:28:00,
2013-01-19 20:43:00,40.3,36.2,29.97,SSW,202,2.2,-999.0,85,-99.99,,,0.00,Acu-Link.com,2013-01-20 01:43:00,
2013-01-19 20:59:00,40.5,36.4,29.97,NNE,22,3.2,-999.0,85,-99.99,,,0.00,Acu-Link.com,2013-01-20 01:59:00,
2013-01-19 21:14:00,40.1,36.0,29.96,WSW,247,6.3,-999.0,85,-99.99,,,0.00,Acu-Link.com,2013-01-20 02:14:00,
2013-01-19 21:30:00,39.7,35.9,29.95,SW,225,1.7,-999.0,86,-99.99,,,0.00,Acu-Link.com,2013-01-20 02:30:00,
2013-01-19 22:00:00,39.2,35.4,29.94,SE,135,0.0,-999.0,86,-99.99,,,0.00,Acu-Link.com,2013-01-20 03:00:00,
2013-01-19 22:46:00,40.1,36.0,29.92,NNE,22,5.8,-999.0,85,-99.99,,,0.00,Acu-Link.com,2013-01-20 03:46:00,
2013-01-19 23:32:00,42.1,35.7,29.90,SSW,202,2.2,-999.0,78,-99.99,,,0.00,Acu-Link.com,2013-01-20 04:32:00,
2013-01-19 23:48:00,42.6,35.9,29.89,South,180,1.7,-999.0,77,-99.99,,,0.00,Acu-Link.com,2013-01-20 04:48:00,